createdAt,value
2023-06-10T00:00:49.398Z,14.90
2023-06-10T00:03:18.907Z,14.90
2023-06-10T00:05:47.568Z,14.80
2023-06-10T00:08:16.845Z,14.80
2023-06-10T00:10:45.222Z,14.70
2023-06-10T00:13:13.590Z,14.70
2023-06-10T00:15:42.604Z,14.70
2023-06-10T00:18:13.013Z,14.70
2023-06-10T00:20:41.966Z,14.70
2023-06-10T00:23:10.624Z,14.70
2023-06-10T00:25:39.086Z,14.70
2023-06-10T00:28:07.626Z,14.60
2023-06-10T00:30:36.458Z,14.70
2023-06-10T00:33:05.594Z,14.60
2023-06-10T00:35:38.668Z,14.60
2023-06-10T00:38:07.044Z,14.50
2023-06-10T00:40:41.501Z,14.50
2023-06-10T00:43:09.918Z,14.40
2023-06-10T00:45:38.421Z,14.40
2023-06-10T00:48:07.317Z,14.40
2023-06-10T00:50:40.247Z,14.40
2023-06-10T00:53:09.842Z,14.40
2023-06-10T00:55:39.409Z,14.40
2023-06-10T00:58:08.164Z,14.40
2023-06-10T01:00:36.589Z,14.40
2023-06-10T01:03:08.872Z,14.40
2023-06-10T01:05:42.282Z,14.30
2023-06-10T01:08:19.206Z,14.30
2023-06-10T01:10:53.350Z,14.30
2023-06-10T01:13:29.586Z,14.30
2023-06-10T01:16:00.360Z,14.30
2023-06-10T01:18:33.507Z,14.20
2023-06-10T01:21:03.827Z,14.20
2023-06-10T01:23:33.585Z,14.10
2023-06-10T01:26:05.025Z,14.10
2023-06-10T01:28:38.006Z,14.10
2023-06-10T01:31:18.783Z,14.10
2023-06-10T01:33:51.969Z,14.00
2023-06-10T01:36:23.384Z,14.10
2023-06-10T01:38:55.813Z,14.00
2023-06-10T01:41:26.328Z,14.00
2023-06-10T01:43:56.474Z,14.00
2023-06-10T01:46:24.916Z,13.90
2023-06-10T01:48:53.334Z,13.90
2023-06-10T01:51:21.760Z,13.80
2023-06-10T01:53:50.114Z,13.80
2023-06-10T01:56:20.930Z,13.80
2023-06-10T01:58:49.305Z,13.80
2023-06-10T02:01:17.991Z,13.80
2023-06-10T02:03:46.346Z,13.70
2023-06-10T02:06:14.907Z,13.70
2023-06-10T02:08:43.238Z,13.60
2023-06-10T02:11:11.703Z,13.60
2023-06-10T02:13:41.650Z,13.60
2023-06-10T02:16:10.564Z,13.50
2023-06-10T02:18:39.407Z,13.50
2023-06-10T02:21:10.753Z,13.50
2023-06-10T02:23:39.097Z,13.50
2023-06-10T02:26:07.592Z,13.50
2023-06-10T02:28:35.857Z,13.50
2023-06-10T02:31:05.795Z,13.40
2023-06-10T02:33:34.791Z,13.40
2023-06-10T02:36:04.010Z,13.30
2023-06-10T02:38:32.812Z,13.30
2023-06-10T02:41:02.287Z,13.20
2023-06-10T02:43:31.073Z,13.20
2023-06-10T02:45:59.747Z,13.20
2023-06-10T02:48:29.965Z,13.20
2023-06-10T02:51:00.722Z,13.20
2023-06-10T02:53:35.321Z,13.20
2023-06-10T02:56:09.070Z,13.20
2023-06-10T02:58:38.006Z,13.10
2023-06-10T03:01:07.333Z,13.20
2023-06-10T03:03:47.604Z,13.10
2023-06-10T03:06:18.961Z,13.10
2023-06-10T03:08:47.783Z,13.00
2023-06-10T03:11:20.512Z,13.00
2023-06-10T03:13:49.953Z,13.00
2023-06-10T03:16:20.817Z,12.90
2023-06-10T03:18:51.796Z,12.90
2023-06-10T03:21:20.763Z,12.90
2023-06-10T03:23:49.238Z,13.00
2023-06-10T03:26:18.254Z,12.90
2023-06-10T03:28:49.876Z,12.90
2023-06-10T03:31:18.974Z,12.90
2023-06-10T03:33:47.719Z,12.90
2023-06-10T03:36:17.973Z,12.90
2023-06-10T03:38:47.340Z,13.00
2023-06-10T03:41:16.019Z,12.90
2023-06-10T03:43:46.970Z,12.90
2023-06-10T03:46:18.684Z,13.00
2023-06-10T03:48:47.451Z,13.00
2023-06-10T03:51:17.311Z,13.00
2023-06-10T03:53:45.988Z,13.00
2023-06-10T03:56:14.528Z,13.00
2023-06-10T03:58:44.657Z,13.00
2023-06-10T04:01:15.407Z,13.00
2023-06-10T04:03:44.736Z,13.10
2023-06-10T04:06:14.334Z,13.10
2023-06-10T04:08:44.648Z,13.20
2023-06-10T04:11:13.032Z,13.20
2023-06-10T04:13:41.398Z,13.20
2023-06-10T04:16:09.758Z,13.20
2023-06-10T04:18:38.277Z,13.30
2023-06-10T04:21:09.616Z,13.30
2023-06-10T04:23:39.743Z,13.40
2023-06-10T04:26:09.904Z,13.40
2023-06-10T04:28:38.383Z,13.40
2023-06-10T04:31:06.872Z,13.50
2023-06-10T04:33:35.218Z,13.50
2023-06-10T04:36:07.715Z,13.60
2023-06-10T04:38:37.136Z,13.60
2023-06-10T04:41:05.825Z,13.70
2023-06-10T04:43:38.037Z,13.70
2023-06-10T04:46:08.891Z,13.80
2023-06-10T04:48:38.513Z,13.90
2023-06-10T04:51:07.316Z,14.00
2023-06-10T04:53:35.759Z,14.10
2023-06-10T04:56:04.270Z,14.10
2023-06-10T04:58:32.859Z,14.20
2023-06-10T05:01:07.742Z,14.30
2023-06-10T05:03:49.031Z,14.40
2023-06-10T05:06:29.399Z,14.50
2023-06-10T05:09:07.378Z,14.60
2023-06-10T05:11:36.353Z,14.70
2023-06-10T05:14:07.971Z,14.80
2023-06-10T05:16:38.576Z,14.90
2023-06-10T05:19:08.585Z,15.10
2023-06-10T05:21:38.332Z,15.20
2023-06-10T05:24:09.583Z,15.30
2023-06-10T05:26:40.382Z,15.40
2023-06-10T05:29:10.209Z,15.50
2023-06-10T05:31:40.534Z,15.60
2023-06-10T05:34:10.863Z,15.80
2023-06-10T05:36:40.046Z,16.00
2023-06-10T05:39:11.828Z,16.10
2023-06-10T05:41:44.823Z,16.30
2023-06-10T05:44:14.561Z,16.40
2023-06-10T05:46:44.954Z,16.60
2023-06-10T05:49:15.769Z,17.10
2023-06-10T05:51:47.367Z,18.10
2023-06-10T05:54:23.161Z,19.20
2023-06-10T05:56:56.842Z,20.20
2023-06-10T05:59:28.232Z,21.10
2023-06-10T06:02:59.256Z,21.70
2023-06-10T06:05:36.101Z,22.30
2023-06-10T06:09:03.278Z,22.90
2023-06-10T06:11:58.116Z,23.00
2023-06-10T06:14:55.118Z,23.10
2023-06-10T06:18:38.558Z,23.10
2023-06-10T06:21:40.078Z,23.20
2023-06-10T06:36:08.207Z,23.50
2023-06-10T06:38:59.040Z,23.60
2023-06-10T06:41:36.255Z,23.70
2023-06-10T06:44:19.064Z,23.70
2023-06-10T06:47:22.896Z,23.80
2023-06-10T06:49:52.714Z,23.90
2023-06-10T06:52:23.530Z,23.70
2023-06-10T06:55:13.067Z,23.60
2023-06-10T06:58:00.655Z,23.50
2023-06-10T07:03:56.267Z,23.40
2023-06-10T07:06:39.849Z,23.40
2023-06-10T07:09:09.762Z,23.40
2023-06-10T07:11:39.584Z,23.50
2023-06-10T07:14:08.627Z,23.50
2023-06-10T07:16:37.196Z,23.60
2023-06-10T07:19:06.457Z,23.70
2023-06-10T07:21:35.969Z,23.90
2023-06-10T07:24:04.390Z,24.10
2023-06-10T07:26:33.983Z,24.30
2023-06-10T07:29:03.719Z,24.40
2023-06-10T07:31:32.306Z,24.50
2023-06-10T07:34:01.376Z,24.60
2023-06-10T07:36:30.524Z,24.80
2023-06-10T07:38:58.871Z,24.90
2023-06-10T07:41:27.391Z,24.90
2023-06-10T07:43:57.033Z,25.00
2023-06-10T07:46:28.245Z,25.30
2023-06-10T07:48:57.405Z,25.50
2023-06-10T07:51:25.775Z,25.60
2023-06-10T07:53:54.166Z,25.70
2023-06-10T07:56:22.902Z,25.70
2023-06-10T07:58:51.268Z,25.70
2023-06-10T08:01:19.594Z,25.70
2023-06-10T08:03:49.530Z,25.70
2023-06-10T08:06:18.969Z,25.70
2023-06-10T08:08:48.591Z,25.70
2023-06-10T08:11:17.344Z,25.90
2023-06-10T08:13:45.698Z,26.10
2023-06-10T08:16:14.033Z,26.30
2023-06-10T08:18:42.883Z,26.40
2023-06-10T08:21:12.579Z,26.40
2023-06-10T08:23:41.218Z,26.60
2023-06-10T08:26:09.598Z,26.70
2023-06-10T08:28:37.939Z,26.70
2023-06-10T08:31:06.374Z,26.90
2023-06-10T08:33:34.806Z,27.10
2023-06-10T08:36:03.343Z,27.10
2023-06-10T08:38:35.681Z,27.20
2023-06-10T08:41:07.656Z,27.20
2023-06-10T08:43:40.842Z,27.20
2023-06-10T08:46:11.526Z,27.30
2023-06-10T08:48:45.430Z,27.50
2023-06-10T08:51:14.185Z,27.70
2023-06-10T08:53:52.388Z,27.80
2023-06-10T08:56:21.819Z,28.00
2023-06-10T08:58:50.595Z,27.90
2023-06-10T09:01:19.606Z,27.90
2023-06-10T09:03:48.355Z,28.00
2023-06-10T09:06:16.871Z,28.10
2023-06-10T09:08:46.929Z,28.20
2023-06-10T09:11:15.231Z,28.30
2023-06-10T09:13:43.760Z,28.30
2023-06-10T09:16:13.833Z,28.50
2023-06-10T09:18:42.292Z,28.70
2023-06-10T09:21:10.666Z,28.80
2023-06-10T09:23:39.702Z,28.90
2023-06-10T09:26:12.675Z,29.10
2023-06-10T09:28:41.390Z,29.20
2023-06-10T09:31:10.228Z,29.20
2023-06-10T09:33:40.533Z,29.20
2023-06-10T09:36:09.613Z,29.30
2023-06-10T09:38:38.844Z,29.50
2023-06-10T09:41:07.142Z,29.60
2023-06-10T09:43:45.099Z,29.70
2023-06-10T09:46:18.147Z,29.80
2023-06-10T09:48:47.761Z,30.00
2023-06-10T09:51:17.999Z,30.10
2023-06-10T09:53:51.088Z,30.10
2023-06-10T09:56:19.782Z,30.00
2023-06-10T09:58:55.305Z,30.00
2023-06-10T10:01:25.183Z,30.20
2023-06-10T10:03:54.321Z,30.20
2023-06-10T10:06:23.195Z,30.20
2023-06-10T10:08:52.770Z,30.30
2023-06-10T10:11:23.439Z,30.50
2023-06-10T10:13:54.178Z,30.60
2023-06-10T10:16:25.427Z,30.70
2023-06-10T10:18:57.037Z,30.90
2023-06-10T10:21:28.591Z,31.10
2023-06-10T10:24:04.877Z,31.30
2023-06-10T10:26:34.247Z,31.40
2023-06-10T10:29:12.684Z,31.30
2023-06-10T10:31:45.081Z,31.40
2023-06-10T10:34:17.931Z,31.50
2023-06-10T10:36:48.954Z,31.80
2023-06-10T10:39:18.379Z,31.90
2023-06-10T10:41:47.628Z,32.00
2023-06-10T10:44:18.587Z,32.00
2023-06-10T10:46:51.098Z,32.20
2023-06-10T10:49:21.412Z,32.20
2023-06-10T10:51:58.538Z,32.00
2023-06-10T10:54:35.220Z,32.10
2023-06-10T10:57:19.314Z,31.90
2023-06-10T11:00:00.990Z,32.00
2023-06-10T11:02:36.925Z,32.10
2023-06-10T11:05:06.492Z,32.20
2023-06-10T11:07:35.630Z,32.20
2023-06-10T11:10:07.700Z,32.40
2023-06-10T11:12:44.456Z,32.50
2023-06-10T11:15:14.418Z,32.80
2023-06-10T11:18:12.485Z,33.10
2023-06-10T11:21:05.768Z,33.10
2023-06-10T11:23:40.336Z,33.20
2023-06-10T11:26:35.956Z,33.10
2023-06-10T11:29:09.003Z,32.80
2023-06-10T11:31:44.496Z,32.60
2023-06-10T11:34:14.204Z,32.40
2023-06-10T11:36:46.082Z,32.40
2023-06-10T11:39:14.963Z,32.00
2023-06-10T11:41:43.831Z,32.00
2023-06-10T11:44:15.563Z,32.20
2023-06-10T11:46:50.687Z,32.50
2023-06-10T11:49:19.235Z,32.70
2023-06-10T11:51:52.624Z,32.90
2023-06-10T11:54:21.210Z,33.10
2023-06-10T11:56:50.195Z,33.40
2023-06-10T11:59:18.610Z,33.40
2023-06-10T12:01:48.511Z,33.70
2023-06-10T12:04:19.335Z,33.70
2023-06-10T12:06:49.299Z,33.50
2023-06-10T12:09:25.023Z,33.10
2023-06-10T12:11:59.128Z,32.60
2023-06-10T12:14:57.699Z,32.60
2023-06-10T12:17:39.677Z,32.50
2023-06-10T12:20:10.715Z,32.50
2023-06-10T12:22:40.538Z,32.60
2023-06-10T12:25:10.650Z,32.80
2023-06-10T12:27:40.113Z,33.00
2023-06-10T12:30:09.074Z,33.40
2023-06-10T12:32:41.243Z,33.70
2023-06-10T12:35:11.723Z,33.70
2023-06-10T12:37:43.034Z,33.70
2023-06-10T12:40:13.244Z,33.80
2023-06-10T12:42:42.386Z,34.00
2023-06-10T12:45:11.959Z,34.30
2023-06-10T12:47:42.756Z,34.40
2023-06-10T12:50:13.192Z,34.30
2023-06-10T12:52:43.214Z,33.40
2023-06-10T12:55:11.994Z,33.00
2023-06-10T12:57:50.989Z,32.70
2023-06-10T13:00:20.615Z,33.10
2023-06-10T13:02:51.864Z,33.30
2023-06-10T13:05:21.532Z,33.40
2023-06-10T13:07:50.618Z,33.30
2023-06-10T13:10:20.411Z,32.70
2023-06-10T13:12:50.629Z,32.40
2023-06-10T13:15:19.775Z,32.10
2023-06-10T13:17:51.070Z,31.70
2023-06-10T13:20:20.287Z,31.70
2023-06-10T13:22:48.977Z,32.20
2023-06-10T13:25:17.617Z,32.60
2023-06-10T13:27:46.006Z,33.00
2023-06-10T13:30:15.272Z,32.80
2023-06-10T13:32:43.752Z,33.10
2023-06-10T13:35:13.716Z,33.20
2023-06-10T13:37:43.359Z,32.70
2023-06-10T13:40:12.687Z,31.90
2023-06-10T13:42:41.084Z,31.30
2023-06-10T13:45:10.710Z,30.70
2023-06-10T13:47:39.933Z,30.40
2023-06-10T13:50:09.370Z,30.10
2023-06-10T13:52:39.142Z,30.40
2023-06-10T13:55:08.367Z,31.20
2023-06-10T13:57:37.073Z,32.00
2023-06-10T14:00:06.506Z,32.30
2023-06-10T14:02:35.065Z,32.80
2023-06-10T14:05:03.825Z,33.40
2023-06-10T14:07:32.221Z,33.90
2023-06-10T14:10:01.978Z,33.50
2023-06-10T14:12:30.314Z,32.70
2023-06-10T14:14:58.678Z,31.80
2023-06-10T14:17:27.054Z,30.90
2023-06-10T14:19:55.482Z,30.30
2023-06-10T14:22:23.781Z,29.90
2023-06-10T14:24:52.125Z,30.20
2023-06-10T14:27:22.177Z,30.90
2023-06-10T14:29:50.539Z,31.40
2023-06-10T14:32:19.026Z,32.00
2023-06-10T14:34:48.070Z,32.50
2023-06-10T14:37:16.389Z,32.90
2023-06-10T14:39:44.771Z,33.30
2023-06-10T14:42:13.160Z,33.10
2023-06-10T14:44:42.965Z,32.30
2023-06-10T14:47:11.351Z,31.50
2023-06-10T14:49:39.742Z,31.30
2023-06-10T14:52:08.617Z,31.40
2023-06-10T14:54:36.949Z,31.70
2023-06-10T14:57:06.773Z,32.10
2023-06-10T14:59:35.397Z,32.10
2023-06-10T15:02:05.132Z,32.20
2023-06-10T15:04:34.163Z,32.30
2023-06-10T15:07:02.632Z,32.60
2023-06-10T15:09:31.067Z,32.90
2023-06-10T15:12:00.404Z,33.20
2023-06-10T15:14:28.800Z,33.30
2023-06-10T15:16:59.305Z,33.40
2023-06-10T15:19:29.181Z,33.70
2023-06-10T15:21:57.464Z,33.70
2023-06-10T15:24:25.998Z,33.50
2023-06-10T15:26:54.369Z,33.60
2023-06-10T15:29:22.833Z,33.40
2023-06-10T15:31:51.191Z,33.30
2023-06-10T15:34:19.598Z,33.30
2023-06-10T15:36:49.850Z,33.30
2023-06-10T15:39:19.678Z,33.10
2023-06-10T15:41:48.265Z,33.00
2023-06-10T15:44:16.659Z,33.10
2023-06-10T15:46:45.450Z,33.00
2023-06-10T15:49:13.874Z,33.20
2023-06-10T15:51:46.752Z,33.20
2023-06-10T15:54:18.955Z,33.20
2023-06-10T15:56:47.286Z,33.10
2023-06-10T15:59:15.833Z,33.10
2023-06-10T16:01:44.249Z,33.20
2023-06-10T16:04:13.032Z,33.20
2023-06-10T16:06:41.559Z,33.20
2023-06-10T16:09:09.908Z,32.70
2023-06-10T16:11:39.614Z,32.50
2023-06-10T16:14:07.998Z,32.00
2023-06-10T16:16:36.468Z,31.80
2023-06-10T16:19:04.875Z,31.90
2023-06-10T16:21:33.276Z,31.90
2023-06-10T16:24:01.805Z,32.10
2023-06-10T16:26:30.223Z,32.10
2023-06-10T16:29:01.079Z,32.10
2023-06-10T16:31:29.673Z,32.20
2023-06-10T16:33:58.096Z,32.20
2023-06-10T16:36:27.557Z,32.30
2023-06-10T16:38:56.466Z,32.20
2023-06-10T16:41:24.979Z,32.00
2023-06-10T16:43:53.287Z,31.90
2023-06-10T16:46:23.812Z,31.90
2023-06-10T16:48:52.225Z,31.80
2023-06-10T16:51:20.646Z,31.90
2023-06-10T16:53:49.069Z,32.00
2023-06-10T16:56:17.425Z,32.00
2023-06-10T16:58:45.843Z,32.10
2023-06-10T17:01:14.243Z,32.10
2023-06-10T17:03:43.728Z,31.90
2023-06-10T17:06:12.148Z,31.70
2023-06-10T17:08:40.425Z,31.30
2023-06-10T17:11:08.798Z,31.10
2023-06-10T17:13:39.836Z,31.00
2023-06-10T17:16:09.943Z,30.90
2023-06-10T17:18:38.248Z,30.90
2023-06-10T17:21:08.116Z,30.90
2023-06-10T17:23:36.353Z,30.90
2023-06-10T17:26:04.750Z,30.80
2023-06-10T17:28:32.908Z,30.70
2023-06-10T17:31:01.283Z,30.70
2023-06-10T17:33:29.556Z,30.50
2023-06-10T17:35:57.967Z,30.00
2023-06-10T17:38:27.502Z,29.70
2023-06-10T17:40:55.792Z,29.40
2023-06-10T17:43:24.462Z,29.10
2023-06-10T17:45:53.437Z,28.80
2023-06-10T17:48:21.648Z,28.40
2023-06-10T17:50:50.122Z,28.00
2023-06-10T17:53:18.684Z,27.50
2023-06-10T17:55:48.549Z,27.20
2023-06-10T17:58:16.839Z,26.90
2023-06-10T18:00:45.165Z,26.80
2023-06-10T18:03:13.430Z,26.70
2023-06-10T18:05:41.772Z,26.60
2023-06-10T18:08:09.944Z,26.60
2023-06-10T18:10:38.264Z,26.60
2023-06-10T18:13:07.759Z,26.60
2023-06-10T18:15:37.759Z,26.60
2023-06-10T18:18:06.617Z,26.60
2023-06-10T18:20:34.956Z,26.50
2023-06-10T18:23:03.171Z,26.50
2023-06-10T18:25:31.499Z,26.50
2023-06-10T18:27:59.823Z,26.40
2023-06-10T18:30:29.551Z,26.30
2023-06-10T18:32:57.805Z,26.20
2023-06-10T18:35:26.383Z,26.20
2023-06-10T18:37:54.602Z,26.10
2023-06-10T18:40:23.082Z,26.00
2023-06-10T18:42:51.277Z,25.90
2023-06-10T18:45:19.790Z,25.80
2023-06-10T18:50:24.919Z,25.60
2023-06-10T18:52:53.253Z,25.50
2023-06-10T18:55:21.714Z,25.40
2023-06-10T18:57:49.921Z,25.40
2023-06-10T19:00:18.984Z,25.30
2023-06-10T19:02:47.298Z,25.20
2023-06-10T19:05:19.529Z,25.10
2023-06-10T19:07:47.805Z,25.00
2023-06-10T19:10:16.266Z,24.80
2023-06-10T19:12:44.536Z,24.70
2023-06-10T19:15:13.478Z,24.60
2023-06-10T19:17:42.356Z,24.50
2023-06-10T19:20:13.045Z,24.40
2023-06-10T19:22:42.511Z,24.30
2023-06-10T19:25:11.633Z,24.20
2023-06-10T19:27:40.334Z,24.10
2023-06-10T19:30:09.859Z,24.00
2023-06-10T19:32:38.156Z,23.80
2023-06-10T19:35:07.259Z,23.80
2023-06-10T19:37:35.699Z,23.60
2023-06-10T19:40:06.401Z,23.60
2023-06-10T19:42:38.005Z,23.50
2023-06-10T19:45:07.584Z,23.40
2023-06-10T19:47:36.024Z,23.30
2023-06-10T19:50:04.474Z,23.20
2023-06-10T19:52:33.475Z,23.10
2023-06-10T19:55:01.837Z,23.00
2023-06-10T19:57:31.954Z,22.80
2023-06-10T20:00:00.257Z,22.60
2023-06-10T20:02:28.535Z,22.40
2023-06-10T20:04:56.945Z,22.20
2023-06-10T20:07:25.154Z,22.00
2023-06-10T20:09:53.411Z,21.90
2023-06-10T20:12:21.629Z,21.80
2023-06-10T20:14:51.509Z,21.70
2023-06-10T20:17:19.775Z,21.60
2023-06-10T20:19:53.145Z,21.50
2023-06-10T20:22:21.717Z,21.30
2023-06-10T20:24:52.016Z,21.20
2023-06-10T20:27:20.372Z,21.10
2023-06-10T20:29:48.653Z,20.90
2023-06-10T20:32:18.341Z,20.80
2023-06-10T20:34:46.654Z,20.70
2023-06-10T20:37:14.901Z,20.60
2023-06-10T20:39:43.955Z,20.50
2023-06-10T20:42:14.222Z,20.40
2023-06-10T20:44:44.359Z,20.40
2023-06-10T20:47:12.614Z,20.20
2023-06-10T20:49:42.293Z,20.10
2023-06-10T20:52:10.549Z,20.00
2023-06-10T20:54:38.805Z,19.90
2023-06-10T20:57:07.966Z,19.80
2023-06-10T20:59:36.262Z,19.70
2023-06-10T21:02:04.652Z,19.70
2023-06-10T21:04:32.919Z,19.60
2023-06-10T21:07:02.355Z,19.50
2023-06-10T21:09:30.642Z,19.50
2023-06-10T21:11:58.883Z,19.40
2023-06-10T21:14:27.183Z,19.30
2023-06-10T21:16:55.433Z,19.30
2023-06-10T21:19:23.734Z,19.20
2023-06-10T21:21:51.925Z,19.10
2023-06-10T21:24:21.746Z,19.00
2023-06-10T21:26:50.257Z,19.00
2023-06-10T21:29:18.922Z,18.90
2023-06-10T21:31:47.264Z,18.80
2023-06-10T21:34:15.644Z,18.70
2023-06-10T21:36:43.872Z,18.70
2023-06-10T21:39:12.490Z,18.60
2023-06-10T21:41:41.984Z,18.50
2023-06-10T21:44:10.394Z,18.50
2023-06-10T21:46:39.324Z,18.50
2023-06-10T21:49:07.814Z,18.40
2023-06-10T21:51:36.100Z,18.30
2023-06-10T21:54:04.688Z,18.20
2023-06-10T21:56:34.589Z,18.10
2023-06-10T21:59:04.549Z,18.00
2023-06-10T22:01:36.439Z,18.00
2023-06-10T22:04:05.120Z,17.90
2023-06-10T22:06:35.015Z,17.90
2023-06-10T22:09:03.888Z,17.80
2023-06-10T22:11:32.367Z,17.70
2023-06-10T22:14:01.245Z,17.70
2023-06-10T22:16:30.888Z,17.60
2023-06-10T22:18:59.167Z,17.50
2023-06-10T22:21:27.652Z,17.50
2023-06-10T22:23:56.262Z,17.40
2023-06-10T22:26:27.459Z,17.40
2023-06-10T22:28:59.578Z,17.30
2023-06-10T22:31:30.470Z,17.30
2023-06-10T22:34:00.253Z,17.20
2023-06-10T22:36:28.849Z,17.20
2023-06-10T22:38:57.119Z,17.20
2023-06-10T22:41:26.150Z,17.20
2023-06-10T22:43:54.902Z,17.20
2023-06-10T22:46:23.114Z,17.20
2023-06-10T22:48:51.497Z,17.10
2023-06-10T22:51:21.050Z,17.10
2023-06-10T22:53:49.747Z,17.10
2023-06-10T22:56:18.560Z,17.00
2023-06-10T22:58:46.858Z,16.90
2023-06-10T23:01:15.554Z,16.90
2023-06-10T23:03:43.897Z,16.90
2023-06-10T23:06:12.344Z,16.90
2023-06-10T23:08:42.409Z,16.80
2023-06-10T23:11:10.979Z,16.80
2023-06-10T23:13:39.545Z,16.70
2023-06-10T23:16:09.030Z,16.80
2023-06-10T23:18:37.573Z,16.70
2023-06-10T23:21:05.850Z,16.70
2023-06-10T23:23:35.303Z,16.70
2023-06-10T23:26:05.204Z,16.60
2023-06-10T23:28:33.608Z,16.60
2023-06-10T23:31:02.418Z,16.50
2023-06-10T23:33:31.658Z,16.50
2023-06-10T23:36:00.330Z,16.50
2023-06-10T23:38:28.571Z,16.40
2023-06-10T23:40:56.925Z,16.40
2023-06-10T23:43:26.584Z,16.40
2023-06-10T23:45:54.895Z,16.30
2023-06-10T23:48:23.246Z,16.40
2023-06-10T23:50:54.188Z,16.30
2023-06-10T23:53:22.538Z,16.30
2023-06-10T23:55:51.168Z,16.30
2023-06-10T23:58:19.494Z,16.30
